createdAt,value
2022-09-15T00:00:00.833Z,0.00
2022-09-15T00:01:00.842Z,0.00
2022-09-15T00:02:01.014Z,0.00
2022-09-15T00:03:00.904Z,0.00
2022-09-15T00:04:00.797Z,0.00
2022-09-15T00:05:00.797Z,0.00
2022-09-15T00:06:00.784Z,0.00
2022-09-15T00:07:00.783Z,0.00
2022-09-15T00:08:00.751Z,0.00
2022-09-15T00:09:00.796Z,0.00
2022-09-15T00:10:00.720Z,0.00
2022-09-15T00:11:00.730Z,0.00
2022-09-15T00:12:00.735Z,0.00
2022-09-15T00:13:00.708Z,0.00
2022-09-15T00:14:00.689Z,0.00
2022-09-15T00:15:00.698Z,0.00
2022-09-15T00:16:00.671Z,0.00
2022-09-15T00:17:00.769Z,0.00
2022-09-15T00:18:00.654Z,0.00
2022-09-15T00:19:00.652Z,0.00
2022-09-15T00:20:00.638Z,0.00
2022-09-15T00:21:00.627Z,0.00
2022-09-15T00:22:00.629Z,0.00
2022-09-15T00:23:00.604Z,0.00
2022-09-15T00:24:00.601Z,0.00
2022-09-15T00:25:00.577Z,0.00
2022-09-15T00:26:00.577Z,0.00
2022-09-15T00:27:00.580Z,0.00
2022-09-15T00:28:00.555Z,0.00
2022-09-15T00:29:00.554Z,0.00
2022-09-15T00:30:00.558Z,0.00
2022-09-15T00:31:00.597Z,0.00
2022-09-15T00:32:00.533Z,0.00
2022-09-15T00:33:00.512Z,0.00
2022-09-15T00:34:00.497Z,0.00
2022-09-15T00:35:00.492Z,0.00
2022-09-15T00:36:00.477Z,0.00
2022-09-15T00:37:00.483Z,0.00
2022-09-15T00:38:00.490Z,0.00
2022-09-15T00:39:00.459Z,0.00
2022-09-15T00:40:00.483Z,0.00
2022-09-15T00:41:00.424Z,0.00
2022-09-15T00:42:00.476Z,0.00
2022-09-15T00:43:00.428Z,0.00
2022-09-15T00:44:00.411Z,0.00
2022-09-15T00:45:00.380Z,0.00
2022-09-15T00:46:00.478Z,0.00
2022-09-15T00:47:18.371Z,0.00
2022-09-15T00:48:02.364Z,0.00
2022-09-15T00:49:00.346Z,0.00
2022-09-15T00:50:00.345Z,0.00
2022-09-15T00:51:00.336Z,0.00
2022-09-15T00:52:00.359Z,0.00
2022-09-15T00:53:00.315Z,0.00
2022-09-15T00:54:00.307Z,0.00
2022-09-15T00:55:00.300Z,0.00
2022-09-15T00:56:00.288Z,0.00
2022-09-15T00:57:00.293Z,0.00
2022-09-15T00:58:00.284Z,0.00
2022-09-15T00:59:00.263Z,0.00
2022-09-15T01:00:00.248Z,0.00
2022-09-15T01:01:00.255Z,0.00
2022-09-15T01:02:00.326Z,0.00
2022-09-15T01:03:00.219Z,0.00
2022-09-15T01:04:00.208Z,0.00
2022-09-15T01:05:00.196Z,0.00
2022-09-15T01:06:00.218Z,0.00
2022-09-15T01:07:00.193Z,0.00
2022-09-15T01:08:00.175Z,0.00
2022-09-15T01:09:00.159Z,0.00
2022-09-15T01:10:00.179Z,0.00
2022-09-15T01:11:00.139Z,0.00
2022-09-15T01:12:00.151Z,0.00
2022-09-15T01:13:00.125Z,0.00
2022-09-15T01:14:00.114Z,0.00
2022-09-15T01:15:00.113Z,0.00
2022-09-15T01:16:00.225Z,0.00
2022-09-15T01:17:00.087Z,0.00
2022-09-15T01:18:00.085Z,0.00
2022-09-15T01:19:00.070Z,0.00
2022-09-15T01:20:00.092Z,0.00
2022-09-15T01:21:00.050Z,0.00
2022-09-15T01:22:00.061Z,0.00
2022-09-15T01:23:00.027Z,0.00
2022-09-15T01:24:00.015Z,0.00
2022-09-15T01:24:59.999Z,0.00
2022-09-15T01:25:59.999Z,0.00
2022-09-15T01:27:00.010Z,0.00
2022-09-15T01:27:59.975Z,0.00
2022-09-15T01:28:59.966Z,0.00
2022-09-15T01:29:59.958Z,0.00
2022-09-15T01:30:59.948Z,0.00
2022-09-15T01:32:00.039Z,0.00
2022-09-15T01:32:59.912Z,0.00
2022-09-15T01:33:59.928Z,0.00
2022-09-15T01:34:59.905Z,0.00
2022-09-15T01:35:59.905Z,0.00
2022-09-15T01:36:59.891Z,0.00
2022-09-15T01:37:59.881Z,0.00
2022-09-15T01:38:59.866Z,0.00
2022-09-15T01:39:59.883Z,0.00
2022-09-15T01:40:59.841Z,0.00
2022-09-15T01:41:59.851Z,0.00
2022-09-15T01:42:59.839Z,0.00
2022-09-15T01:43:59.811Z,0.00
2022-09-15T01:44:59.799Z,0.00
2022-09-15T01:45:59.868Z,0.00
2022-09-15T01:46:59.806Z,0.00
2022-09-15T01:47:59.775Z,0.00
2022-09-15T01:48:59.768Z,0.00
2022-09-15T01:49:59.753Z,0.00
2022-09-15T01:50:59.749Z,0.00
2022-09-15T01:51:59.758Z,0.00
2022-09-15T01:52:59.727Z,0.00
2022-09-15T01:53:59.719Z,0.00
2022-09-15T01:54:59.755Z,0.00
2022-09-15T01:55:59.701Z,0.00
2022-09-15T01:56:59.701Z,0.00
2022-09-15T01:57:59.686Z,0.00
2022-09-15T01:58:59.668Z,0.00
2022-09-15T01:59:59.656Z,0.00
2022-09-15T02:00:59.682Z,0.00
2022-09-15T02:01:59.689Z,0.00
2022-09-15T02:02:59.631Z,0.00
2022-09-15T02:03:59.619Z,0.00
2022-09-15T02:04:59.614Z,0.00
2022-09-15T02:05:59.598Z,0.00
2022-09-15T02:06:59.608Z,0.00
2022-09-15T02:07:59.594Z,0.00
2022-09-15T02:08:59.561Z,0.00
2022-09-15T02:09:59.588Z,0.00
2022-09-15T02:10:59.546Z,0.00
2022-09-15T02:11:59.556Z,0.00
2022-09-15T02:12:59.575Z,0.00
2022-09-15T02:13:59.524Z,0.00
2022-09-15T02:14:59.508Z,0.00
2022-09-15T02:15:59.625Z,0.00
2022-09-15T02:16:59.509Z,0.00
2022-09-15T02:17:59.495Z,0.00
2022-09-15T02:18:59.474Z,0.00
2022-09-15T02:19:59.463Z,0.00
2022-09-15T02:20:59.448Z,0.00
2022-09-15T02:21:59.514Z,0.00
2022-09-15T02:22:59.431Z,0.00
2022-09-15T02:23:59.420Z,0.00
2022-09-15T02:24:59.407Z,0.00
2022-09-15T02:25:59.402Z,0.00
2022-09-15T02:26:59.406Z,0.00
2022-09-15T02:27:59.384Z,0.00
2022-09-15T02:28:59.369Z,0.00
2022-09-15T02:29:59.359Z,0.00
2022-09-15T02:30:59.353Z,0.00
2022-09-15T02:32:02.587Z,0.00
2022-09-15T02:32:59.330Z,0.00
2022-09-15T02:33:59.319Z,0.00
2022-09-15T02:34:59.314Z,0.00
2022-09-15T02:35:59.305Z,0.00
2022-09-15T02:36:59.314Z,0.00
2022-09-15T02:37:59.324Z,0.00
2022-09-15T02:38:59.277Z,0.00
2022-09-15T02:39:59.292Z,0.00
2022-09-15T02:40:59.236Z,0.00
2022-09-15T02:41:59.268Z,0.00
2022-09-15T02:42:59.234Z,0.00
2022-09-15T02:43:59.221Z,0.00
2022-09-15T02:44:59.205Z,0.00
2022-09-15T02:45:59.282Z,0.00
2022-09-15T02:46:59.189Z,0.00
2022-09-15T02:47:59.199Z,0.00
2022-09-15T02:48:59.160Z,0.00
2022-09-15T02:49:59.157Z,0.00
2022-09-15T02:50:59.158Z,0.00
2022-09-15T02:51:59.133Z,0.00
2022-09-15T02:52:59.138Z,0.00
2022-09-15T02:53:59.115Z,0.00
2022-09-15T02:54:59.107Z,0.00
2022-09-15T02:55:59.132Z,0.00
2022-09-15T02:56:59.084Z,0.00
2022-09-15T02:57:59.091Z,0.00
2022-09-15T02:58:59.064Z,0.00
2022-09-15T02:59:59.040Z,0.00
2022-09-15T03:00:59.093Z,0.00
2022-09-15T03:01:59.106Z,0.00
2022-09-15T03:02:59.041Z,0.00
2022-09-15T03:04:00.523Z,0.00
2022-09-15T03:05:31.407Z,0.00
2022-09-15T03:05:58.992Z,0.00
2022-09-15T03:06:58.981Z,0.00
2022-09-15T03:07:58.991Z,0.00
2022-09-15T03:08:58.965Z,0.00
2022-09-15T03:09:58.954Z,0.00
2022-09-15T03:10:58.944Z,0.00
2022-09-15T03:11:58.933Z,0.00
2022-09-15T03:12:58.942Z,0.00
2022-09-15T03:13:58.918Z,0.00
2022-09-15T03:14:58.910Z,0.00
2022-09-15T03:15:58.930Z,0.00
2022-09-15T03:16:58.885Z,0.00
2022-09-15T03:17:58.888Z,0.00
2022-09-15T03:18:58.859Z,0.00
2022-09-15T03:19:58.858Z,0.00
2022-09-15T03:20:58.846Z,0.00
2022-09-15T03:21:58.829Z,0.00
2022-09-15T03:22:59.837Z,0.00
2022-09-15T03:23:58.957Z,0.00
2022-09-15T03:24:58.809Z,0.00
2022-09-15T03:25:58.795Z,0.00
2022-09-15T03:26:58.787Z,0.00
2022-09-15T03:27:58.789Z,0.00
2022-09-15T03:28:58.771Z,0.00
2022-09-15T03:29:58.761Z,0.00
2022-09-15T03:30:58.739Z,0.00
2022-09-15T03:31:58.799Z,0.00
2022-09-15T03:32:58.743Z,0.00
2022-09-15T03:33:58.720Z,0.00
2022-09-15T03:34:58.831Z,0.00
2022-09-15T03:35:58.691Z,0.00
2022-09-15T03:36:58.680Z,0.00
2022-09-15T03:37:58.701Z,0.00
2022-09-15T03:38:58.656Z,0.00
2022-09-15T03:39:58.715Z,0.00
2022-09-15T03:40:58.640Z,0.00
2022-09-15T03:41:59.263Z,0.00
2022-09-15T03:42:58.632Z,0.00
2022-09-15T03:43:58.609Z,0.00
2022-09-15T03:44:58.600Z,0.00
2022-09-15T03:45:58.646Z,0.00
2022-09-15T03:46:58.578Z,0.00
2022-09-15T03:47:58.590Z,0.00
2022-09-15T03:48:58.559Z,0.00
2022-09-15T03:49:58.555Z,0.00
2022-09-15T03:50:59.216Z,0.00
2022-09-15T03:51:58.522Z,0.00
2022-09-15T03:52:59.535Z,0.00
2022-09-15T03:53:58.515Z,0.00
2022-09-15T03:54:58.492Z,0.00
2022-09-15T03:55:58.493Z,0.00
2022-09-15T03:56:58.486Z,0.00
2022-09-15T03:57:58.485Z,0.00
2022-09-15T03:58:58.459Z,0.00
2022-09-15T03:59:58.452Z,0.00
2022-09-15T04:00:58.491Z,0.00
2022-09-15T04:01:59.255Z,0.00
2022-09-15T04:02:58.436Z,0.00
2022-09-15T04:03:58.405Z,0.00
2022-09-15T04:04:58.405Z,0.00
2022-09-15T04:05:58.394Z,0.00
2022-09-15T04:06:58.383Z,0.00
2022-09-15T04:07:58.395Z,0.00
2022-09-15T04:08:58.362Z,0.00
2022-09-15T04:09:58.351Z,0.00
2022-09-15T04:10:58.341Z,0.00
2022-09-15T04:11:58.333Z,0.00
2022-09-15T04:12:59.157Z,0.00
2022-09-15T04:13:58.308Z,0.00
2022-09-15T04:14:58.298Z,0.00
2022-09-15T04:15:58.304Z,0.00
2022-09-15T04:16:58.285Z,0.00
2022-09-15T04:17:58.296Z,0.00
2022-09-15T04:18:58.260Z,0.00
2022-09-15T04:19:58.248Z,0.00
2022-09-15T04:20:58.243Z,0.00
2022-09-15T04:21:58.240Z,0.00
2022-09-15T04:22:58.237Z,0.00
2022-09-15T04:23:58.203Z,0.00
2022-09-15T04:24:58.196Z,0.00
2022-09-15T04:25:58.193Z,0.00
2022-09-15T04:26:58.182Z,0.00
2022-09-15T04:27:58.185Z,4.00
2022-09-15T04:29:01.687Z,4.00
2022-09-15T04:30:00.146Z,0.00
2022-09-15T04:30:58.174Z,4.00
2022-09-15T04:31:58.130Z,4.00
2022-09-15T04:32:58.139Z,4.00
2022-09-15T04:33:58.109Z,8.00
2022-09-15T04:34:58.097Z,8.00
2022-09-15T04:35:58.085Z,12.00
2022-09-15T04:36:58.081Z,12.00
2022-09-15T04:37:58.084Z,16.00
2022-09-15T04:38:58.064Z,20.00
2022-09-15T04:39:58.192Z,20.00
2022-09-15T04:40:58.038Z,28.00
2022-09-15T04:41:58.033Z,32.00
2022-09-15T04:42:58.042Z,36.00
2022-09-15T04:43:58.017Z,48.00
2022-09-15T04:44:58.024Z,56.00
2022-09-15T04:45:57.997Z,64.00
2022-09-15T04:46:58.031Z,68.00
2022-09-15T04:47:57.990Z,84.00
2022-09-15T04:48:57.965Z,96.00
2022-09-15T04:49:57.953Z,108.00
2022-09-15T04:50:57.947Z,116.00
2022-09-15T04:51:57.928Z,132.00
2022-09-15T04:52:58.941Z,140.00
2022-09-15T04:53:57.918Z,144.00
2022-09-15T04:54:57.904Z,144.00
2022-09-15T04:55:57.901Z,144.00
2022-09-15T04:56:57.889Z,156.00
2022-09-15T04:57:57.903Z,164.00
2022-09-15T04:59:03.247Z,180.00
2022-09-15T04:59:59.860Z,200.00
2022-09-15T05:00:57.917Z,232.00
2022-09-15T05:01:57.895Z,256.00
2022-09-15T05:02:57.821Z,280.00
2022-09-15T05:03:57.814Z,308.00
2022-09-15T05:04:57.815Z,348.00
2022-09-15T05:05:57.788Z,384.00
2022-09-15T05:06:57.797Z,416.00
2022-09-15T05:07:57.773Z,440.00
2022-09-15T05:08:57.774Z,460.00
2022-09-15T05:09:57.769Z,468.00
2022-09-15T05:10:57.746Z,484.00
2022-09-15T05:11:57.761Z,508.00
2022-09-15T05:12:57.726Z,540.00
2022-09-15T05:13:57.715Z,576.00
2022-09-15T05:14:57.711Z,604.00
2022-09-15T05:15:57.752Z,632.00
2022-09-15T05:16:57.704Z,644.00
2022-09-15T05:17:57.679Z,648.00
2022-09-15T05:18:57.666Z,668.00
2022-09-15T05:19:57.667Z,688.00
2022-09-15T05:20:57.647Z,724.00
2022-09-15T05:21:57.630Z,760.00
2022-09-15T05:22:57.648Z,812.00
2022-09-15T05:23:57.620Z,868.00
2022-09-15T05:24:57.603Z,904.00
2022-09-15T05:25:57.603Z,960.00
2022-09-15T05:26:57.585Z,1036.00
2022-09-15T05:27:57.594Z,1064.00
2022-09-15T05:28:57.569Z,1072.00
2022-09-15T05:30:23.498Z,1096.00
2022-09-15T05:30:58.615Z,1120.00
2022-09-15T05:31:57.556Z,1172.00
2022-09-15T05:32:57.535Z,1236.00
2022-09-15T05:33:57.517Z,1316.00
2022-09-15T05:34:57.517Z,1400.00
2022-09-15T05:35:57.505Z,1468.00
2022-09-15T05:36:57.507Z,1516.00
2022-09-15T05:37:57.480Z,1560.00
2022-09-15T05:38:57.469Z,1612.00
2022-09-15T05:39:57.514Z,1684.00
2022-09-15T05:40:57.448Z,1776.00
2022-09-15T05:41:57.447Z,1864.00
2022-09-15T05:42:57.430Z,1968.00
2022-09-15T05:43:57.419Z,2032.00
2022-09-15T05:44:57.399Z,2084.00
2022-09-15T05:45:57.389Z,2160.00
2022-09-15T05:46:57.434Z,2236.00
2022-09-15T05:47:57.372Z,2292.00
2022-09-15T05:48:57.364Z,2356.00
2022-09-15T05:49:57.351Z,2408.00
2022-09-15T05:50:57.346Z,2428.00
2022-09-15T05:51:57.351Z,2416.00
2022-09-15T05:52:57.319Z,2380.00
2022-09-15T05:53:57.309Z,2368.00
2022-09-15T05:54:59.334Z,2332.00
2022-09-15T05:55:58.291Z,2312.00
2022-09-15T05:56:57.301Z,2344.00
2022-09-15T05:57:57.273Z,2364.00
2022-09-15T05:58:57.260Z,2352.00
2022-09-15T05:59:57.278Z,2368.00
2022-09-15T06:00:57.251Z,2392.00
2022-09-15T06:01:57.332Z,2404.00
2022-09-15T06:02:57.365Z,2436.00
2022-09-15T06:03:57.218Z,2504.00
2022-09-15T06:04:57.209Z,2560.00
2022-09-15T06:05:57.249Z,2596.00
2022-09-15T06:06:58.748Z,2616.00
2022-09-15T06:07:57.173Z,2668.00
2022-09-15T06:08:58.849Z,2704.00
2022-09-15T06:09:58.161Z,2776.00
2022-09-15T06:10:57.144Z,2848.00
2022-09-15T06:11:57.152Z,2924.00
2022-09-15T06:12:57.154Z,3032.00
2022-09-15T06:13:57.120Z,3116.00
2022-09-15T06:14:57.110Z,3160.00
2022-09-15T06:15:57.204Z,3268.00
2022-09-15T06:16:57.095Z,3404.00
2022-09-15T06:17:57.082Z,3492.00
2022-09-15T06:18:57.064Z,3632.00
2022-09-15T06:19:57.053Z,3780.00
2022-09-15T06:20:57.041Z,3888.00
2022-09-15T06:21:57.105Z,4008.00
2022-09-15T06:22:57.028Z,4076.00
2022-09-15T06:23:57.005Z,4176.00
2022-09-15T06:24:58.009Z,4200.00
2022-09-15T06:25:56.996Z,4208.00
2022-09-15T06:26:57.253Z,4276.00
2022-09-15T06:27:56.970Z,4280.00
2022-09-15T06:28:56.958Z,4312.00
2022-09-15T06:29:56.964Z,4352.00
2022-09-15T06:30:56.952Z,4388.00
2022-09-15T06:31:57.056Z,4412.00
2022-09-15T06:32:56.923Z,4436.00
2022-09-15T06:33:56.913Z,4396.00
2022-09-15T06:34:56.910Z,4316.00
2022-09-15T06:35:56.896Z,4156.00
2022-09-15T06:36:56.942Z,4056.00
2022-09-15T06:37:56.874Z,4112.00
2022-09-15T06:38:56.873Z,4052.00
2022-09-15T06:39:56.929Z,3988.00
2022-09-15T06:40:56.849Z,4056.00
2022-09-15T06:42:02.686Z,3900.00
2022-09-15T06:42:58.829Z,3788.00
2022-09-15T06:43:56.823Z,3840.00
2022-09-15T06:44:56.814Z,3972.00
2022-09-15T06:45:56.818Z,3952.00
2022-09-15T06:46:56.803Z,4028.00
2022-09-15T06:48:20.153Z,4132.00
2022-09-15T06:48:58.757Z,4112.00
2022-09-15T06:49:56.753Z,4084.00
2022-09-15T06:50:56.738Z,4120.00
2022-09-15T06:51:56.765Z,4256.00
2022-09-15T06:52:56.739Z,4360.00
2022-09-15T06:53:56.714Z,4280.00
2022-09-15T06:54:56.708Z,4332.00
2022-09-15T06:55:56.699Z,4120.00
2022-09-15T06:56:56.696Z,4256.00
2022-09-15T06:57:56.667Z,4520.00
2022-09-15T06:58:56.680Z,4748.00
2022-09-15T06:59:56.665Z,5032.00
2022-09-15T07:00:56.648Z,5272.00
2022-09-15T07:01:56.701Z,4900.00
2022-09-15T07:02:56.800Z,4876.00
2022-09-15T07:03:56.651Z,4924.00
2022-09-15T07:04:56.613Z,5116.00
2022-09-15T07:05:56.592Z,5448.00
2022-09-15T07:06:56.605Z,5372.00
2022-09-15T07:07:56.586Z,5344.00
2022-09-15T07:08:56.567Z,5468.00
2022-09-15T07:09:56.583Z,5488.00
2022-09-15T07:10:56.542Z,5336.00
2022-09-15T07:11:56.546Z,5232.00
2022-09-15T07:12:56.536Z,5240.00
2022-09-15T07:13:56.516Z,5292.00
2022-09-15T07:14:56.506Z,5328.00
2022-09-15T07:15:56.551Z,5404.00
2022-09-15T07:16:56.509Z,5596.00
2022-09-15T07:17:56.479Z,5736.00
2022-09-15T07:18:56.474Z,5764.00
2022-09-15T07:19:56.465Z,5876.00
2022-09-15T07:20:56.445Z,6096.00
2022-09-15T07:21:56.460Z,6384.00
2022-09-15T07:22:56.426Z,6592.00
2022-09-15T07:23:56.419Z,6832.00
2022-09-15T07:24:56.426Z,7052.00
2022-09-15T07:25:56.401Z,7296.00
2022-09-15T07:26:56.412Z,7424.00
2022-09-15T07:27:56.388Z,7388.00
2022-09-15T07:28:56.358Z,7268.00
2022-09-15T07:29:56.362Z,7144.00
2022-09-15T07:30:56.354Z,6948.00
2022-09-15T07:31:56.478Z,6892.00
2022-09-15T07:32:56.316Z,6908.00
2022-09-15T07:33:56.320Z,7004.00
2022-09-15T07:34:58.344Z,7316.00
2022-09-15T07:35:57.300Z,7752.00
2022-09-15T07:36:56.300Z,8080.00
2022-09-15T07:37:56.284Z,8328.00
2022-09-15T07:38:56.271Z,8452.00
2022-09-15T07:39:56.306Z,8764.00
2022-09-15T07:40:56.249Z,8864.00
2022-09-15T07:41:56.265Z,8820.00
2022-09-15T07:42:56.254Z,8716.00
2022-09-15T07:43:56.225Z,8416.00
2022-09-15T07:44:56.210Z,8452.00
2022-09-15T07:45:56.245Z,8444.00
2022-09-15T07:46:56.207Z,8356.00
2022-09-15T07:47:56.184Z,8200.00
2022-09-15T07:48:56.181Z,8040.00
2022-09-15T07:49:56.165Z,7868.00
2022-09-15T07:50:56.164Z,7808.00
2022-09-15T07:51:56.162Z,7576.00
2022-09-15T07:52:56.139Z,7324.00
2022-09-15T07:53:56.119Z,6872.00
2022-09-15T07:54:56.112Z,6320.00
2022-09-15T07:55:56.117Z,5752.00
2022-09-15T07:56:56.142Z,5516.00
2022-09-15T07:57:56.125Z,5500.00
2022-09-15T07:58:56.090Z,5276.00
2022-09-15T07:59:56.057Z,5536.00
2022-09-15T08:00:56.130Z,5752.00
2022-09-15T08:01:56.115Z,5460.00
2022-09-15T08:02:56.033Z,5304.00
2022-09-15T08:03:56.029Z,5272.00
2022-09-15T08:04:56.009Z,5028.00
2022-09-15T08:05:56.010Z,4628.00
2022-09-15T08:06:56.004Z,4500.00
2022-09-15T08:07:55.987Z,4688.00
2022-09-15T08:09:00.419Z,4812.00
2022-09-15T08:09:56.963Z,4980.00
2022-09-15T08:10:55.955Z,5164.00
2022-09-15T08:11:55.980Z,5372.00
2022-09-15T08:12:55.928Z,5576.00
2022-09-15T08:13:55.948Z,5872.00
2022-09-15T08:14:55.914Z,6112.00
2022-09-15T08:15:55.959Z,6416.00
2022-09-15T08:16:55.980Z,6704.00
2022-09-15T08:17:55.898Z,6896.00
2022-09-15T08:18:55.868Z,7152.00
2022-09-15T08:19:55.867Z,7508.00
2022-09-15T08:20:55.937Z,7984.00
2022-09-15T08:21:55.849Z,8196.00
2022-09-15T08:22:55.841Z,8216.00
2022-09-15T08:23:55.900Z,8352.00
2022-09-15T08:24:56.059Z,8636.00
2022-09-15T08:25:55.827Z,9060.00
2022-09-15T08:26:55.797Z,9508.00
2022-09-15T08:27:55.795Z,9804.00
2022-09-15T08:28:55.771Z,10040.00
2022-09-15T08:29:56.705Z,10260.00
2022-09-15T08:30:55.877Z,10492.00
2022-09-15T08:31:55.749Z,10676.00
2022-09-15T08:32:55.731Z,10892.00
2022-09-15T08:33:55.775Z,11072.00
2022-09-15T08:34:55.738Z,11176.00
2022-09-15T08:35:55.710Z,11320.00
2022-09-15T08:36:55.703Z,11512.00
2022-09-15T08:37:55.677Z,11404.00
2022-09-15T08:38:55.666Z,11104.00
2022-09-15T08:39:55.718Z,10996.00
2022-09-15T08:40:55.653Z,10368.00
2022-09-15T08:41:55.674Z,9744.00
2022-09-15T08:42:55.638Z,8964.00
2022-09-15T08:43:55.634Z,8316.00
2022-09-15T08:44:55.621Z,7824.00
2022-09-15T08:45:55.625Z,7312.00
2022-09-15T08:46:55.653Z,6640.00
2022-09-15T08:47:55.587Z,5964.00
2022-09-15T08:48:57.713Z,5664.00
2022-09-15T08:49:55.567Z,5500.00
2022-09-15T08:50:55.550Z,5224.00
2022-09-15T08:51:55.567Z,4980.00
2022-09-15T08:52:55.535Z,4644.00
2022-09-15T08:53:55.531Z,4384.00
2022-09-15T08:54:55.516Z,4260.00
2022-09-15T08:55:55.505Z,4308.00
2022-09-15T08:56:55.515Z,4448.00
2022-09-15T08:57:55.489Z,4620.00
2022-09-15T08:58:55.516Z,4756.00
2022-09-15T08:59:55.469Z,5204.00
2022-09-15T09:00:55.461Z,5516.00
2022-09-15T09:01:55.649Z,5416.00
2022-09-15T09:02:55.507Z,5312.00
2022-09-15T09:03:55.436Z,5240.00
2022-09-15T09:04:55.428Z,4940.00
2022-09-15T09:05:55.431Z,4560.00
2022-09-15T09:06:55.395Z,4500.00
2022-09-15T09:07:55.400Z,4600.00
2022-09-15T09:08:55.391Z,4348.00
2022-09-15T09:09:55.377Z,4060.00
2022-09-15T09:10:55.386Z,3924.00
2022-09-15T09:11:55.355Z,4080.00
2022-09-15T09:12:55.340Z,4584.00
2022-09-15T09:13:55.341Z,5180.00
2022-09-15T09:14:55.329Z,5648.00
2022-09-15T09:15:55.363Z,6228.00
2022-09-15T09:16:55.309Z,6984.00
2022-09-15T09:17:55.309Z,7716.00
2022-09-15T09:18:55.277Z,8208.00
2022-09-15T09:19:55.269Z,8932.00
2022-09-15T09:20:55.273Z,9816.00
2022-09-15T09:21:55.250Z,10820.00
2022-09-15T09:22:55.236Z,11340.00
2022-09-15T09:24:27.141Z,11548.00
2022-09-15T09:24:55.219Z,11476.00
2022-09-15T09:25:55.230Z,11376.00
2022-09-15T09:26:55.195Z,11188.00
2022-09-15T09:27:55.182Z,11196.00
2022-09-15T09:28:55.181Z,11212.00
2022-09-15T09:29:55.168Z,11660.00
2022-09-15T09:30:55.241Z,12464.00
2022-09-15T09:31:55.153Z,13124.00
2022-09-15T09:32:55.142Z,13468.00
2022-09-15T09:33:55.269Z,13452.00
2022-09-15T09:34:55.119Z,13280.00
2022-09-15T09:35:55.127Z,13368.00
2022-09-15T09:36:55.095Z,13612.00
2022-09-15T09:37:55.095Z,13976.00
2022-09-15T09:38:55.083Z,14116.00
2022-09-15T09:39:55.111Z,13768.00
2022-09-15T09:40:59.854Z,13208.00
2022-09-15T09:41:57.046Z,12956.00
2022-09-15T09:42:55.029Z,13132.00
2022-09-15T09:43:55.019Z,13920.00
2022-09-15T09:44:56.017Z,14640.00
2022-09-15T09:45:55.070Z,14880.00
2022-09-15T09:46:54.991Z,14736.00
2022-09-15T09:47:59.508Z,14364.00
2022-09-15T09:48:57.082Z,13960.00
2022-09-15T09:49:54.983Z,13592.00
2022-09-15T09:50:54.962Z,13248.00
2022-09-15T09:51:54.955Z,12860.00
2022-09-15T09:52:54.955Z,12224.00
2022-09-15T09:53:54.935Z,11776.00
2022-09-15T09:54:54.939Z,11312.00
2022-09-15T09:55:54.937Z,10964.00
2022-09-15T09:56:54.950Z,9972.00
2022-09-15T09:57:54.925Z,9132.00
2022-09-15T09:58:54.902Z,8436.00
2022-09-15T09:59:54.892Z,7804.00
2022-09-15T10:00:54.885Z,7416.00
2022-09-15T10:01:54.995Z,7328.00
2022-09-15T10:02:54.855Z,7164.00
2022-09-15T10:03:54.856Z,7216.00
2022-09-15T10:04:55.896Z,7364.00
2022-09-15T10:05:54.823Z,7324.00
2022-09-15T10:06:54.831Z,7572.00
2022-09-15T10:07:54.811Z,8040.00
2022-09-15T10:08:54.829Z,8600.00
2022-09-15T10:09:54.790Z,9300.00
2022-09-15T10:10:54.775Z,9876.00
2022-09-15T10:11:54.791Z,10336.00
2022-09-15T10:12:54.762Z,10828.00
2022-09-15T10:13:54.770Z,10824.00
2022-09-15T10:14:54.755Z,10424.00
2022-09-15T10:15:54.733Z,10492.00
2022-09-15T10:16:54.826Z,11064.00
2022-09-15T10:17:54.724Z,11868.00
2022-09-15T10:18:54.749Z,12524.00
2022-09-15T10:19:54.694Z,13044.00
2022-09-15T10:20:54.687Z,13404.00
2022-09-15T10:21:54.690Z,13496.00
2022-09-15T10:22:54.666Z,13184.00
2022-09-15T10:23:54.652Z,12796.00
2022-09-15T10:24:54.643Z,12268.00
2022-09-15T10:25:59.700Z,11792.00
2022-09-15T10:26:56.648Z,11648.00
2022-09-15T10:27:54.616Z,11448.00
2022-09-15T10:28:54.641Z,10992.00
2022-09-15T10:29:54.599Z,10720.00
2022-09-15T10:30:54.626Z,10708.00
2022-09-15T10:31:54.644Z,11108.00
2022-09-15T10:32:54.566Z,11496.00
2022-09-15T10:33:54.552Z,12252.00
2022-09-15T10:34:54.543Z,13116.00
2022-09-15T10:35:54.544Z,14008.00
2022-09-15T10:36:54.547Z,14516.00
2022-09-15T10:37:54.522Z,14960.00
2022-09-15T10:38:54.497Z,15368.00
2022-09-15T10:39:54.579Z,15816.00
2022-09-15T10:40:54.490Z,16352.00
2022-09-15T10:41:54.493Z,17056.00
2022-09-15T10:42:54.456Z,17312.00
2022-09-15T10:43:54.457Z,17312.00
2022-09-15T10:44:54.442Z,16736.00
2022-09-15T10:45:54.484Z,16032.00
2022-09-15T10:46:54.432Z,14936.00
2022-09-15T10:47:55.416Z,13924.00
2022-09-15T10:48:54.419Z,12860.00
2022-09-15T10:49:54.397Z,12196.00
2022-09-15T10:50:54.388Z,11512.00
2022-09-15T10:51:54.395Z,10984.00
2022-09-15T10:52:54.365Z,10764.00
2022-09-15T10:53:57.337Z,10640.00
2022-09-15T10:54:55.339Z,10816.00
2022-09-15T10:55:54.339Z,11304.00
2022-09-15T10:56:54.350Z,11760.00
2022-09-15T10:57:54.325Z,12464.00
2022-09-15T10:58:54.352Z,13252.00
2022-09-15T10:59:54.299Z,14404.00
2022-09-15T11:00:54.312Z,15744.00
2022-09-15T11:01:54.342Z,14064.00
2022-09-15T11:02:54.269Z,14024.00
2022-09-15T11:03:54.260Z,15936.00
2022-09-15T11:04:54.249Z,16000.00
2022-09-15T11:05:54.249Z,14828.00
2022-09-15T11:06:54.252Z,14212.00
2022-09-15T11:07:54.220Z,13980.00
2022-09-15T11:08:54.209Z,15056.00
2022-09-15T11:09:54.225Z,14972.00
2022-09-15T11:10:54.182Z,13248.00
2022-09-15T11:11:54.195Z,12784.00
2022-09-15T11:12:54.162Z,12280.00
2022-09-15T11:13:54.267Z,11948.00
2022-09-15T11:14:54.137Z,12920.00
2022-09-15T11:15:54.171Z,12768.00
2022-09-15T11:16:54.163Z,12792.00
2022-09-15T11:17:54.133Z,12352.00
2022-09-15T11:18:54.190Z,13056.00
2022-09-15T11:19:54.091Z,14944.00
2022-09-15T11:20:54.084Z,15616.00
2022-09-15T11:21:54.121Z,15968.00
2022-09-15T11:22:54.074Z,16576.00
2022-09-15T11:23:54.071Z,16704.00
2022-09-15T11:24:54.045Z,16704.00
2022-09-15T11:25:54.060Z,16992.00
2022-09-15T11:26:54.038Z,17472.00
2022-09-15T11:27:54.043Z,18400.00
2022-09-15T11:28:54.066Z,15680.00
2022-09-15T11:29:54.015Z,14396.00
2022-09-15T11:30:53.982Z,13252.00
2022-09-15T11:31:54.123Z,11820.00
2022-09-15T11:32:55.792Z,10704.00
2022-09-15T11:33:53.975Z,10368.00
2022-09-15T11:34:53.944Z,10744.00
2022-09-15T11:35:53.978Z,11056.00
2022-09-15T11:36:53.956Z,11896.00
2022-09-15T11:37:53.930Z,12736.00
2022-09-15T11:38:53.964Z,12572.00
2022-09-15T11:39:53.957Z,11772.00
2022-09-15T11:40:53.999Z,10880.00
2022-09-15T11:41:53.911Z,10152.00
2022-09-15T11:42:53.864Z,10560.00
2022-09-15T11:43:53.858Z,11540.00
2022-09-15T11:44:53.852Z,12128.00
2022-09-15T11:45:53.854Z,12736.00
2022-09-15T11:46:53.944Z,12776.00
2022-09-15T11:47:53.825Z,12580.00
2022-09-15T11:48:53.821Z,12300.00
2022-09-15T11:49:53.817Z,12060.00
2022-09-15T11:50:53.810Z,11704.00
2022-09-15T11:51:53.802Z,11228.00
2022-09-15T11:52:53.775Z,10632.00
2022-09-15T11:53:53.852Z,10212.00
2022-09-15T11:54:53.779Z,9888.00
2022-09-15T11:55:53.743Z,9272.00
2022-09-15T11:56:53.759Z,8388.00
2022-09-15T11:57:53.719Z,8140.00
2022-09-15T11:58:53.699Z,8100.00
2022-09-15T11:59:54.751Z,7460.00
2022-09-15T12:00:53.688Z,7112.00
2022-09-15T12:01:53.728Z,7248.00
2022-09-15T12:02:53.705Z,7328.00
2022-09-15T12:03:53.820Z,7744.00
2022-09-15T12:04:53.652Z,7384.00
2022-09-15T12:05:53.643Z,6824.00
2022-09-15T12:06:53.687Z,6752.00
2022-09-15T12:07:53.616Z,6488.00
2022-09-15T12:08:53.763Z,6468.00
2022-09-15T12:09:53.609Z,6452.00
2022-09-15T12:10:53.575Z,6500.00
2022-09-15T12:11:53.593Z,6804.00
2022-09-15T12:12:53.599Z,7168.00
2022-09-15T12:13:53.609Z,7612.00
2022-09-15T12:14:53.543Z,7732.00
2022-09-15T12:15:53.615Z,7764.00
2022-09-15T12:16:53.552Z,8004.00
2022-09-15T12:17:53.536Z,8164.00
2022-09-15T12:18:53.534Z,8404.00
2022-09-15T12:19:53.496Z,8764.00
2022-09-15T12:20:53.490Z,9008.00
2022-09-15T12:21:53.512Z,9204.00
2022-09-15T12:22:53.468Z,9348.00
2022-09-15T12:23:53.464Z,10160.00
2022-09-15T12:24:53.524Z,10788.00
2022-09-15T12:25:53.426Z,11448.00
2022-09-15T12:26:53.452Z,11988.00
2022-09-15T12:27:53.428Z,12200.00